createdAt,value
2022-09-12T00:01:27.070Z,-20323.28
2022-09-12T00:03:58.187Z,-20324.78
2022-09-12T00:06:28.738Z,-20324.03
2022-09-12T00:08:58.794Z,-20323.88
2022-09-12T00:11:27.278Z,-20323.56
2022-09-12T00:13:57.684Z,-20321.44
2022-09-12T00:16:28.721Z,-20319.91
2022-09-12T00:18:57.942Z,-20319.31
2022-09-12T00:21:34.261Z,-20318.38
2022-09-12T00:24:02.492Z,-20317.78
2022-09-12T00:26:30.706Z,-20317.00
2022-09-12T00:28:58.763Z,-20314.41
2022-09-12T00:31:27.825Z,-20314.56
2022-09-12T00:34:01.008Z,-20315.34
2022-09-12T00:36:30.378Z,-20313.81
2022-09-12T00:38:58.402Z,-20312.59
2022-09-12T00:41:28.351Z,-20311.50
2022-09-12T00:43:58.506Z,-20310.91
2022-09-12T00:46:37.020Z,-20310.16
2022-09-12T00:49:26.175Z,-20310.28
2022-09-12T00:52:04.700Z,-20309.53
2022-09-12T00:54:37.447Z,-20308.16
2022-09-12T00:57:17.501Z,-20308.63
2022-09-12T01:00:01.596Z,-20309.22
2022-09-12T01:02:30.006Z,-20308.16
2022-09-12T01:05:04.810Z,-20305.72
2022-09-12T01:07:36.837Z,-20304.19
2022-09-12T01:10:09.998Z,-20303.72
2022-09-12T01:12:40.659Z,-20303.13
2022-09-12T01:15:12.436Z,-20302.03
2022-09-12T01:18:01.909Z,-20300.97
2022-09-12T01:20:52.121Z,-20303.72
2022-09-12T01:24:00.277Z,-20301.59
2022-09-12T01:26:54.730Z,-20300.22
2022-09-12T01:29:42.195Z,-20299.16
2022-09-12T01:32:24.288Z,-20299.16
2022-09-12T01:34:58.896Z,-20298.06
2022-09-12T01:37:34.202Z,-20298.22
2022-09-12T01:40:08.933Z,-20297.94
2022-09-12T01:42:48.278Z,-20296.69
2022-09-12T01:45:21.799Z,-20296.09
2022-09-12T01:47:58.380Z,-20296.84
2022-09-12T01:50:29.443Z,-20295.31
2022-09-12T01:53:06.136Z,-20295.78
2022-09-12T01:55:41.426Z,-20294.25
2022-09-12T01:58:19.998Z,-20293.66
2022-09-12T02:01:00.911Z,-20291.97
2022-09-12T02:04:09.819Z,-20291.22
2022-09-12T02:06:52.736Z,-20289.97
2022-09-12T02:09:39.697Z,-20291.66
2022-09-12T02:12:22.068Z,-20291.81
2022-09-12T02:17:55.223Z,-20288.59
2022-09-12T02:20:51.790Z,-20287.84
2022-09-12T02:24:00.204Z,-20286.00
2022-09-12T02:26:42.711Z,-20284.94
2022-09-12T02:29:11.395Z,-20284.78
2022-09-12T02:31:47.186Z,-20285.84
2022-09-12T02:34:28.908Z,-20285.09
2022-09-12T02:37:16.667Z,-20284.19
2022-09-12T02:39:52.317Z,-20283.88
2022-09-12T02:42:27.873Z,-20281.13
2022-09-12T02:45:07.417Z,-20281.88
2022-09-12T02:47:40.713Z,-20283.25
2022-09-12T02:50:12.904Z,-20281.41
2022-09-12T02:52:43.304Z,-20280.66
2022-09-12T02:55:12.803Z,-20279.75
2022-09-12T02:57:46.743Z,-20278.38
2022-09-12T03:00:15.367Z,-20278.66
2022-09-12T03:02:59.758Z,-20277.75
2022-09-12T03:05:33.452Z,-20277.13
2022-09-12T03:08:23.643Z,-20275.47
2022-09-12T03:11:24.580Z,-20274.25
2022-09-12T03:14:02.961Z,-20272.56
2022-09-12T03:16:50.227Z,-20271.94
2022-09-12T03:19:26.980Z,-20270.28
2022-09-12T03:22:09.490Z,-20269.97
2022-09-12T03:24:45.143Z,-20269.50
2022-09-12T03:27:17.482Z,-20268.44
2022-09-12T03:29:51.525Z,-20268.59
2022-09-12T03:32:21.805Z,-20270.13
2022-09-12T03:34:49.869Z,-20270.28
2022-09-12T03:37:17.693Z,-20270.13
2022-09-12T03:39:46.848Z,-20268.88
2022-09-12T03:42:14.686Z,-20267.97
2022-09-12T03:44:42.884Z,-20266.59
2022-09-12T03:47:27.507Z,-20265.22
2022-09-12T03:50:15.176Z,-20264.59
2022-09-12T03:53:17.550Z,-20264.91
2022-09-12T03:56:19.240Z,-20263.09
2022-09-12T03:58:47.248Z,-20262.78
2022-09-12T04:01:27.816Z,-20262.16
2022-09-12T04:03:55.580Z,-20262.78
2022-09-12T04:06:24.395Z,-20261.56
2022-09-12T04:08:56.152Z,-20260.63
2022-09-12T04:11:25.568Z,-20260.03
2022-09-12T04:13:53.650Z,-20259.72
2022-09-12T04:16:21.612Z,-20259.25
2022-09-12T04:18:49.621Z,-20256.97
2022-09-12T04:21:28.077Z,-20256.97
2022-09-12T04:23:56.040Z,-20256.66
2022-09-12T04:26:25.519Z,-20256.03
2022-09-12T04:29:03.347Z,-20256.81
2022-09-12T04:31:31.175Z,-20256.97
2022-09-12T04:34:00.446Z,-20255.28
2022-09-12T04:36:30.019Z,-20255.75
2022-09-12T04:38:57.860Z,-20255.75
2022-09-12T04:41:29.503Z,-20255.13
2022-09-12T04:43:59.224Z,-20253.59
2022-09-12T04:46:27.537Z,-20255.13
2022-09-12T04:49:03.592Z,-20254.81
2022-09-12T04:51:44.332Z,-20253.28
2022-09-12T04:54:13.936Z,-20251.63
2022-09-12T04:56:48.789Z,-20252.69
2022-09-12T04:59:31.379Z,-20254.53
2022-09-12T05:02:10.996Z,-20254.38
2022-09-12T05:04:55.075Z,-20253.91
2022-09-12T05:07:37.263Z,-20253.28
2022-09-12T05:10:25.633Z,-20252.69
2022-09-12T05:12:57.294Z,-20253.91
2022-09-12T05:15:40.994Z,-20253.16
2022-09-12T05:18:09.070Z,-20253.16
2022-09-12T05:20:36.871Z,-20251.78
2022-09-12T05:23:08.008Z,-20252.38
2022-09-12T05:25:44.247Z,-20252.69
2022-09-12T05:28:13.446Z,-20252.53
2022-09-12T05:30:49.544Z,-20254.53
2022-09-12T05:33:19.195Z,-20255.59
2022-09-12T05:35:52.954Z,-20254.81
2022-09-12T05:38:21.033Z,-20258.34
2022-09-12T05:40:49.753Z,-20263.38
2022-09-12T05:43:20.271Z,-20273.47
2022-09-12T05:45:51.663Z,-20273.94
2022-09-12T05:48:19.593Z,-20276.53
2022-09-12T05:50:47.356Z,-20278.53
2022-09-12T05:53:15.631Z,-20281.41
2022-09-12T05:55:47.030Z,-20287.22
2022-09-12T05:58:14.907Z,-20286.63
2022-09-12T06:00:44.048Z,-20292.72
2022-09-12T06:03:20.419Z,-20296.69
2022-09-12T06:05:50.686Z,-20300.22
2022-09-12T06:08:30.932Z,-20303.44
2022-09-12T06:11:05.700Z,-20307.09
2022-09-12T06:13:43.049Z,-20315.94
2022-09-12T06:16:16.143Z,-20324.50
2022-09-12T06:18:49.216Z,-20332.75
2022-09-12T06:21:36.979Z,-20342.66
2022-09-12T06:24:05.278Z,-20346.78
2022-09-12T06:26:35.019Z,-20352.25
2022-09-12T06:29:09.113Z,-20352.25
2022-09-12T06:31:44.974Z,-20359.88
2022-09-12T06:34:23.579Z,-20358.66
2022-09-12T06:37:00.253Z,-20361.72
2022-09-12T06:40:17.775Z,-20370.56
2022-09-12T06:45:58.027Z,-20394.19
2022-09-12T06:48:42.122Z,-20395.41
2022-09-12T06:51:13.428Z,-20403.78
2022-09-12T06:54:08.745Z,-20413.53
2022-09-12T06:57:43.781Z,-20433.94
2022-09-12T07:04:14.848Z,-20461.78
2022-09-12T07:07:20.504Z,-20475.31
2022-09-12T07:20:13.827Z,-20574.63
2022-09-12T07:23:29.258Z,-20576.59
2022-09-12T07:26:06.917Z,-20581.59
2022-09-12T07:28:40.559Z,-20570.97
2022-09-12T07:32:20.133Z,-20564.16
2022-09-12T07:38:36.504Z,-20585.69
2022-09-12T07:41:22.762Z,-20583.41
2022-09-12T07:44:16.834Z,-20606.59
2022-09-12T07:47:49.930Z,-20593.41
2022-09-12T07:54:57.041Z,-20632.19
2022-09-12T07:57:55.906Z,-20657.00
2022-09-12T08:03:58.601Z,-20632.94
2022-09-12T08:07:07.703Z,-20665.91
2022-09-12T08:09:40.208Z,-20666.97
2022-09-12T08:12:20.328Z,-20681.94
2022-09-12T08:14:52.440Z,-20699.59
2022-09-12T08:18:15.426Z,-20702.94
2022-09-12T08:21:44.029Z,-20665.47
2022-09-12T08:24:53.189Z,-20660.31
2022-09-12T08:27:40.903Z,-20670.59
2022-09-12T08:30:13.395Z,-20693.25
2022-09-12T08:33:10.988Z,-20679.66
2022-09-12T08:35:41.448Z,-20705.03
2022-09-12T08:38:36.891Z,-20688.72
2022-09-12T08:41:45.968Z,-20711.09
2022-09-12T08:45:18.223Z,-20714.09
2022-09-12T08:48:44.321Z,-20694.91
2022-09-12T08:51:45.892Z,-20720.44
2022-09-12T08:55:00.476Z,-20712.59
2022-09-12T08:58:07.975Z,-20729.03
2022-09-12T09:01:23.966Z,-20694.47
2022-09-12T09:07:54.008Z,-20721.66
2022-09-12T09:10:33.872Z,-20700.81
2022-09-12T09:13:13.502Z,-20679.97
2022-09-12T09:16:05.484Z,-20671.34
2022-09-12T09:18:39.450Z,-20673.03
2022-09-12T09:21:30.656Z,-20681.78
2022-09-12T09:24:14.188Z,-20710.94
2022-09-12T09:26:47.410Z,-20715.31
2022-09-12T09:29:25.302Z,-20707.75
2022-09-12T09:31:59.298Z,-20701.41
2022-09-12T09:34:34.518Z,-20688.88
2022-09-12T09:40:08.309Z,-20737.63
2022-09-12T09:43:05.313Z,-20753.00
2022-09-12T09:46:35.587Z,-20737.63
2022-09-12T09:49:07.876Z,-20743.53
2022-09-12T09:51:39.906Z,-20724.81
2022-09-12T09:54:24.601Z,-20748.81
2022-09-12T09:57:03.212Z,-20768.53
2022-09-12T09:59:32.794Z,-20780.00
2022-09-12T10:02:04.229Z,-20763.28
2022-09-12T10:04:41.232Z,-20797.31
2022-09-12T10:07:19.959Z,-20782.84
2022-09-12T10:10:08.384Z,-20766.59
2022-09-12T10:13:00.217Z,-20762.38
2022-09-12T10:15:46.963Z,-20746.53
2022-09-12T10:18:54.487Z,-20736.13
2022-09-12T10:27:25.228Z,-20745.78
2022-09-12T10:30:07.848Z,-20764.63
2022-09-12T10:32:40.314Z,-20741.72
2022-09-12T10:35:19.901Z,-20746.84
2022-09-12T10:37:58.367Z,-20754.69
2022-09-12T10:40:29.625Z,-20791.88
2022-09-12T10:43:06.054Z,-20774.41
2022-09-12T10:45:40.331Z,-20768.09
2022-09-12T10:48:30.643Z,-20780.91
2022-09-12T10:51:04.418Z,-20780.13
2022-09-12T10:53:40.860Z,-20785.41
2022-09-12T10:56:20.555Z,-20791.56
2022-09-12T10:59:04.717Z,-20798.50
2022-09-12T11:01:52.777Z,-20826.94
2022-09-12T11:04:42.510Z,-20801.06
2022-09-12T11:07:39.805Z,-20790.06
2022-09-12T11:10:22.912Z,-20812.94
2022-09-12T11:12:57.860Z,-20801.53
2022-09-12T11:15:43.313Z,-20853.69
2022-09-12T11:18:33.631Z,-20830.69
2022-09-12T11:21:21.765Z,-20829.50
2022-09-12T11:24:10.154Z,-20818.38
2022-09-12T11:26:48.707Z,-20830.41
2022-09-12T11:29:26.488Z,-20830.09
2022-09-12T11:32:09.301Z,-20834.59
2022-09-12T11:34:53.470Z,-20843.63
2022-09-12T11:37:41.995Z,-20814.47
2022-09-12T11:40:27.954Z,-20854.44
2022-09-12T11:43:00.759Z,-20850.84
2022-09-12T11:45:34.677Z,-20834.75
2022-09-12T11:48:17.730Z,-20845.88
2022-09-12T11:50:48.452Z,-20843.16
2022-09-12T11:53:21.002Z,-20835.22
2022-09-12T11:55:56.058Z,-20846.34
2022-09-12T11:58:28.726Z,-20853.25
2022-09-12T12:01:01.564Z,-20840.63
2022-09-12T12:03:34.504Z,-20831.00
2022-09-12T12:06:13.016Z,-20828.44
2022-09-12T12:08:44.367Z,-20836.41
2022-09-12T12:11:16.907Z,-20859.25
2022-09-12T12:13:51.715Z,-20876.34
2022-09-12T12:16:24.512Z,-20852.50
2022-09-12T12:18:59.637Z,-20863.16
2022-09-12T12:21:43.567Z,-20844.53
2022-09-12T12:24:18.383Z,-20838.38
2022-09-12T12:27:01.103Z,-20856.25
2022-09-12T12:29:44.325Z,-20857.75
2022-09-12T12:32:25.177Z,-20833.72
2022-09-12T12:35:25.581Z,-20826.78
2022-09-12T12:37:58.844Z,-20830.41
2022-09-12T12:40:29.587Z,-20810.53
2022-09-12T12:43:31.449Z,-20805.28
2022-09-12T12:46:11.597Z,-20789.63
2022-09-12T12:49:08.413Z,-20815.22
2022-09-12T12:51:40.928Z,-20826.78
2022-09-12T12:54:33.100Z,-20820.47
2022-09-12T12:57:19.859Z,-20813.09
2022-09-12T12:59:50.105Z,-20825.28
2022-09-12T13:02:23.639Z,-20820.47
2022-09-12T13:04:51.832Z,-20785.13
2022-09-12T13:07:31.169Z,-20808.44
2022-09-12T13:10:02.208Z,-20817.16
2022-09-12T13:12:33.581Z,-20822.28
2022-09-12T13:15:02.658Z,-20828.59
2022-09-12T13:17:35.393Z,-20823.63
2022-09-12T13:20:34.011Z,-20815.06
2022-09-12T13:23:02.376Z,-20815.38
2022-09-12T13:25:36.850Z,-20824.38
2022-09-12T13:28:18.437Z,-20839.41
2022-09-12T13:30:49.651Z,-20850.25
2022-09-12T13:33:23.490Z,-20806.03
2022-09-12T13:36:28.268Z,-20800.00
2022-09-12T13:39:18.732Z,-20801.22
2022-09-12T13:42:17.799Z,-20800.31
2022-09-12T13:44:49.554Z,-20800.00
2022-09-12T13:47:26.060Z,-20810.25
2022-09-12T13:49:55.362Z,-20819.88
2022-09-12T13:52:26.859Z,-20826.19
2022-09-12T13:54:58.181Z,-20824.09
2022-09-12T13:57:32.465Z,-20844.81
2022-09-12T14:00:02.073Z,-20839.28
2022-09-12T14:02:31.342Z,-20828.91
2022-09-12T14:05:13.208Z,-20828.28
2022-09-12T14:07:53.405Z,-20834.91
2022-09-12T14:10:26.760Z,-20824.38
2022-09-12T14:12:57.255Z,-20818.06
2022-09-12T14:15:28.376Z,-20812.06
2022-09-12T14:18:01.371Z,-20824.09
2022-09-12T14:20:32.413Z,-20820.47
2022-09-12T14:23:03.541Z,-20817.00
2022-09-12T14:25:38.998Z,-20809.50
2022-09-12T14:28:12.868Z,-20810.84
2022-09-12T14:30:40.781Z,-20812.06
2022-09-12T14:33:21.841Z,-20812.66
2022-09-12T14:35:51.475Z,-20826.63
2022-09-12T14:38:25.036Z,-20830.09
2022-09-12T14:41:01.215Z,-20815.97
2022-09-12T14:43:32.853Z,-20813.25
2022-09-12T14:46:02.949Z,-20813.41
2022-09-12T14:48:33.205Z,-20809.34
2022-09-12T14:51:01.304Z,-20799.13
2022-09-12T14:53:34.578Z,-20800.91
2022-09-12T14:56:10.043Z,-20800.00
2022-09-12T14:58:42.009Z,-20803.63
2022-09-12T15:01:28.571Z,-20820.63
2022-09-12T15:03:57.594Z,-20808.13
2022-09-12T15:06:29.364Z,-20806.34
2022-09-12T15:08:59.160Z,-20808.44
2022-09-12T15:11:29.460Z,-20799.41
2022-09-12T15:13:58.806Z,-20799.72
2022-09-12T15:16:27.777Z,-20773.50
2022-09-12T15:18:55.767Z,-20778.63
2022-09-12T15:21:23.965Z,-20781.34
2022-09-12T15:23:53.803Z,-20778.63
2022-09-12T15:26:24.007Z,-20783.31
2022-09-12T15:28:54.548Z,-20787.06
2022-09-12T15:31:26.930Z,-20797.75
2022-09-12T15:34:04.394Z,-20794.31
2022-09-12T15:36:38.190Z,-20799.72
2022-09-12T15:39:09.717Z,-20800.31
2022-09-12T15:41:39.482Z,-20787.97
2022-09-12T15:44:08.892Z,-20778.94
2022-09-12T15:46:41.613Z,-20775.94
2022-09-12T15:49:10.392Z,-20777.72
2022-09-12T15:51:38.240Z,-20768.38
2022-09-12T15:54:07.653Z,-20765.38
2022-09-12T15:56:35.730Z,-20762.66
2022-09-12T15:59:03.458Z,-20761.59
2022-09-12T16:01:31.160Z,-20762.38
2022-09-12T16:04:00.228Z,-20765.53
2022-09-12T16:06:36.821Z,-20768.09
2022-09-12T16:09:05.319Z,-20772.31
2022-09-12T16:11:36.434Z,-20769.59
2022-09-12T16:14:04.205Z,-20766.13
2022-09-12T16:16:34.366Z,-20769.91
2022-09-12T16:19:04.898Z,-20770.19
2022-09-12T16:21:32.914Z,-20768.25
2022-09-12T16:24:00.611Z,-20765.81
2022-09-12T16:26:28.422Z,-20760.56
2022-09-12T16:28:56.938Z,-20753.63
2022-09-12T16:31:25.075Z,-20753.00
2022-09-12T16:33:53.329Z,-20747.91
2022-09-12T16:36:23.479Z,-20745.47
2022-09-12T16:38:52.687Z,-20739.59
2022-09-12T16:41:22.585Z,-20738.25
2022-09-12T16:43:50.331Z,-20737.94
2022-09-12T16:46:19.971Z,-20726.47
2022-09-12T16:48:52.424Z,-20723.00
2022-09-12T16:51:25.810Z,-20718.63
2022-09-12T16:53:55.076Z,-20718.94
2022-09-12T16:56:23.625Z,-20715.75
2022-09-12T16:58:57.368Z,-20711.38
2022-09-12T17:01:28.897Z,-20709.56
2022-09-12T17:03:58.947Z,-20711.09
2022-09-12T17:06:29.667Z,-20706.69
2022-09-12T17:09:01.700Z,-20702.47
2022-09-12T17:11:31.680Z,-20689.47
2022-09-12T17:14:04.968Z,-20681.94
2022-09-12T17:16:34.887Z,-20679.06
2022-09-12T17:19:02.651Z,-20672.09
2022-09-12T17:21:32.426Z,-20663.50
2022-09-12T17:24:02.269Z,-20657.91
2022-09-12T17:26:32.702Z,-20645.50
2022-09-12T17:29:00.794Z,-20644.59
2022-09-12T17:31:29.155Z,-20634.28
2022-09-12T17:33:58.980Z,-20611.91
2022-09-12T17:36:27.589Z,-20601.59
2022-09-12T17:38:56.973Z,-20595.22
2022-09-12T17:41:29.571Z,-20588.25
2022-09-12T17:43:58.932Z,-20576.44
2022-09-12T17:46:31.041Z,-20570.69
2022-09-12T17:49:00.919Z,-20565.06
2022-09-12T17:51:30.745Z,-20555.22
2022-09-12T17:54:02.703Z,-20552.78
2022-09-12T17:56:55.991Z,-20546.88
2022-09-12T17:59:24.991Z,-20544.28
2022-09-12T18:02:10.524Z,-20543.97
2022-09-12T18:04:40.076Z,-20531.53
2022-09-12T18:07:12.228Z,-20525.91
2022-09-12T18:09:51.273Z,-20523.66
2022-09-12T18:12:22.006Z,-20518.63
2022-09-12T18:14:50.042Z,-20513.47
2022-09-12T18:17:24.867Z,-20510.44
2022-09-12T18:19:58.406Z,-20509.06
2022-09-12T18:22:29.677Z,-20505.13
2022-09-12T18:25:00.420Z,-20501.91
2022-09-12T18:27:28.281Z,-20500.56
2022-09-12T18:30:20.479Z,-20496.00
2022-09-12T18:32:50.196Z,-20494.16
2022-09-12T18:35:20.071Z,-20488.41
2022-09-12T18:37:48.936Z,-20485.97
2022-09-12T18:44:10.768Z,-20477.91
2022-09-12T18:47:08.531Z,-20477.00
2022-09-12T19:31:44.153Z,-20442.16
2022-09-12T19:34:15.580Z,-20440.50
2022-09-12T19:36:51.513Z,-20438.97
2022-09-12T19:39:24.518Z,-20438.06
2022-09-12T19:42:04.870Z,-20436.53
2022-09-12T19:44:33.264Z,-20435.78
2022-09-12T19:47:00.710Z,-20433.63
2022-09-12T19:49:28.503Z,-20433.03
2022-09-12T19:51:56.589Z,-20428.75
2022-09-12T19:54:24.406Z,-20426.03
2022-09-12T19:56:52.071Z,-20425.13
2022-09-12T19:59:32.952Z,-20425.56
2022-09-12T20:02:01.022Z,-20424.19
2022-09-12T20:04:31.051Z,-20421.47
2022-09-12T20:07:09.880Z,-20417.81
2022-09-12T20:09:38.020Z,-20419.03
2022-09-12T20:12:10.131Z,-20419.31
2022-09-12T20:14:39.444Z,-20415.97
2022-09-12T20:17:07.415Z,-20415.06
2022-09-12T20:19:37.750Z,-20410.97
2022-09-12T20:22:12.014Z,-20409.59
2022-09-12T20:24:39.760Z,-20410.03
2022-09-12T20:27:07.886Z,-20409.59
2022-09-12T20:30:43.838Z,-20408.66
2022-09-12T20:33:24.989Z,-20407.91
2022-09-12T20:35:55.418Z,-20406.69
2022-09-12T20:39:00.388Z,-20404.72
2022-09-12T20:41:49.111Z,-20404.72
2022-09-12T20:47:55.669Z,-20399.97
2022-09-12T20:51:27.387Z,-20398.78
2022-09-12T20:55:14.297Z,-20398.00
2022-09-12T20:58:44.077Z,-20395.25
2022-09-12T21:01:24.751Z,-20397.38
2022-09-12T21:03:53.188Z,-20395.09
2022-09-12T21:06:22.210Z,-20392.53
2022-09-12T21:08:55.534Z,-20390.38
2022-09-12T21:11:37.341Z,-20389.16
2022-09-12T21:14:36.990Z,-20388.25
2022-09-12T21:17:12.042Z,-20388.56
2022-09-12T21:19:42.224Z,-20386.56
2022-09-12T21:22:10.734Z,-20384.13
2022-09-12T21:24:38.498Z,-20383.38
2022-09-12T21:27:07.783Z,-20383.06
2022-09-12T21:29:54.608Z,-20381.84
2022-09-12T21:32:22.728Z,-20379.25
2022-09-12T21:35:07.317Z,-20380.31
2022-09-12T21:37:42.726Z,-20380.19
2022-09-12T21:40:11.274Z,-20381.53
2022-09-12T21:42:39.094Z,-20384.75
2022-09-12T21:45:09.496Z,-20382.16
2022-09-12T21:47:39.105Z,-20381.84
2022-09-12T21:50:08.433Z,-20380.31
2022-09-12T21:52:37.264Z,-20381.53
2022-09-12T21:55:05.979Z,-20379.56
2022-09-12T21:57:35.192Z,-20377.88
2022-09-12T22:00:06.400Z,-20378.50
2022-09-12T22:02:36.010Z,-20378.19
2022-09-12T22:05:16.191Z,-20378.03
2022-09-12T22:07:48.949Z,-20374.53
2022-09-12T22:10:20.037Z,-20375.91
2022-09-12T22:12:51.154Z,-20375.13
2022-09-12T22:15:41.644Z,-20372.69
2022-09-12T22:18:11.448Z,-20372.41
2022-09-12T22:20:39.399Z,-20371.50
2022-09-12T22:23:25.366Z,-20369.34
2022-09-12T22:25:55.929Z,-20369.34
2022-09-12T22:28:25.086Z,-20368.75
2022-09-12T22:30:54.397Z,-20369.03
2022-09-12T22:33:32.771Z,-20368.44
2022-09-12T22:36:05.882Z,-20366.00
2022-09-12T22:38:37.404Z,-20364.31
2022-09-12T22:41:09.497Z,-20364.31
2022-09-12T22:43:38.505Z,-20362.63
2022-09-12T22:46:07.315Z,-20361.88
2022-09-12T22:48:37.379Z,-20361.09
2022-09-12T22:51:09.711Z,-20360.34
2022-09-12T22:53:45.001Z,-20359.75
2022-09-12T22:56:12.871Z,-20359.88
2022-09-12T22:58:41.949Z,-20358.06
2022-09-12T23:01:10.384Z,-20356.22
2022-09-12T23:03:42.912Z,-20355.31
2022-09-12T23:06:11.520Z,-20353.47
2022-09-12T23:08:49.350Z,-20352.88
2022-09-12T23:11:23.166Z,-20351.66
2022-09-12T23:14:00.784Z,-20350.75
2022-09-12T23:16:32.001Z,-20351.50
2022-09-12T23:19:22.771Z,-20350.88
2022-09-12T23:21:50.766Z,-20349.22
2022-09-12T23:24:25.804Z,-20349.06
2022-09-12T23:26:58.361Z,-20349.22
2022-09-12T23:29:26.919Z,-20348.16
2022-09-12T23:31:55.459Z,-20347.06
2022-09-12T23:34:32.594Z,-20346.16
2022-09-12T23:37:01.616Z,-20344.94
2022-09-12T23:39:29.503Z,-20344.78
2022-09-12T23:42:26.014Z,-20344.63
2022-09-12T23:44:53.917Z,-20344.19
2022-09-12T23:47:39.460Z,-20343.56
2022-09-12T23:50:25.137Z,-20343.13
2022-09-12T23:52:55.427Z,-20342.19
2022-09-12T23:55:23.673Z,-20341.28
2022-09-12T23:57:51.326Z,-20340.06
